Terminal Aerodrome Forecast
Issued by NWS Lake Charles, LA

Home | Current Version | Previous Version | Text Only | Print | Product List | Glossary On
Versions: 1 2 3 4 5 6 7 8 9 10 11 12 13 14 15 16 17 18 19
145
FTUS44 KLCH 241741
TAFARA
TAF
KARA 241741Z 2418/2518 17017G30KT P6SM VCSH SCT025 BKN030
      TEMPO 2420/2424 SCT025 BKN035
     FM250100 19015G25KT P6SM VCSH OVC015
     FM250400 19010KT P6SM VCSH OVC007
     FM250700 20009KT P6SM -SHRA OVC006
      TEMPO 2510/2514 2SM -TSRA BKN006CB
     FM251500 36006KT 5SM -SHRA OVC010=

USA.gov is the U.S. government's official web portal to all federal, state and local government web resources and services.